sensor_id;sensor_type;location;lat;lon;timestamp;P1;durP1;ratioP1;P2;durP2;ratioP2
31974;SDS011;18500;43.618;1.474;2022-07-21T13:04:38;908.78;;;830.08;;
31974;SDS011;18500;43.618;1.474;2022-07-21T13:07:03;824.67;;;756.75;;
31974;SDS011;18500;43.618;1.474;2022-07-21T13:09:29;902.03;;;828.67;;
31974;SDS011;18500;43.618;1.474;2022-07-21T13:11:55;950.95;;;872.47;;
31974;SDS011;18500;43.618;1.474;2022-07-21T13:14:20;874.55;;;806.92;;
31974;SDS011;18500;43.618;1.474;2022-07-21T13:16:46;881.17;;;810.55;;
31974;SDS011;18500;43.618;1.474;2022-07-21T13:19:12;946.08;;;863.90;;
31974;SDS011;18500;43.618;1.474;2022-07-21T13:21:37;955.42;;;872.65;;
31974;SDS011;18500;43.618;1.474;2022-07-21T13:24:03;825.20;;;757.55;;
31974;SDS011;18500;43.618;1.474;2022-07-21T13:26:29;1025.63;;;935.13;;
31974;SDS011;18500;43.618;1.474;2022-07-21T13:28:55;1018.05;;;929.03;;
31974;SDS011;18500;43.618;1.474;2022-07-21T13:31:20;1019.80;;;931.38;;
31974;SDS011;18500;43.618;1.474;2022-07-21T13:33:46;1030.57;;;943.17;;
31974;SDS011;18500;43.618;1.474;2022-07-21T13:36:12;1029.70;;;941.75;;
31974;SDS011;18500;43.618;1.474;2022-07-21T13:38:38;967.97;;;879.35;;
31974;SDS011;18500;43.618;1.474;2022-07-21T13:41:05;997.33;;;914.30;;
31974;SDS011;18500;43.618;1.474;2022-07-21T13:43:31;1039.57;;;947.00;;
31974;SDS011;18500;43.618;1.474;2022-07-21T13:45:57;1086.18;;;981.90;;
31974;SDS011;18500;43.618;1.474;2022-07-21T13:48:23;1075.65;;;971.67;;
31974;SDS011;18500;43.618;1.474;2022-07-21T13:50:48;1090.68;;;984.72;;
31974;SDS011;18500;43.618;1.474;2022-07-21T13:53:14;1102.82;;;990.60;;
31974;SDS011;18500;43.618;1.474;2022-07-21T13:55:40;976.42;;;889.58;;
31974;SDS011;18500;43.618;1.474;2022-07-21T13:58:05;1114.28;;;997.75;;
31974;SDS011;18500;43.618;1.474;2022-07-21T14:00:33;1122.80;;;999.83;;
31974;SDS011;18500;43.618;1.474;2022-07-21T14:02:59;1105.75;;;994.67;;
31974;SDS011;18500;43.618;1.474;2022-07-21T14:05:25;1025.88;;;933.15;;
31974;SDS011;18500;43.618;1.474;2022-07-21T14:07:50;1096.82;;;989.17;;
31974;SDS011;18500;43.618;1.474;2022-07-21T14:10:16;1103.60;;;994.45;;
31974;SDS011;18500;43.618;1.474;2022-07-21T14:12:42;1093.82;;;989.30;;
31974;SDS011;18500;43.618;1.474;2022-07-21T14:15:08;1086.55;;;982.80;;
31974;SDS011;18500;43.618;1.474;2022-07-21T14:17:34;1103.88;;;996.55;;
31974;SDS011;18500;43.618;1.474;2022-07-21T14:19:59;1091.40;;;986.03;;
31974;SDS011;18500;43.618;1.474;2022-07-21T14:22:25;1097.30;;;991.10;;
31974;SDS011;18500;43.618;1.474;2022-07-21T14:24:51;1088.53;;;984.85;;
31974;SDS011;18500;43.618;1.474;2022-07-21T14:27:35;1082.95;;;981.22;;
31974;SDS011;18500;43.618;1.474;2022-07-21T14:30:01;1094.65;;;987.05;;
31974;SDS011;18500;43.618;1.474;2022-07-21T14:32:26;1091.28;;;986.65;;
31974;SDS011;18500;43.618;1.474;2022-07-21T14:34:52;1051.22;;;956.08;;
31974;SDS011;18500;43.618;1.474;2022-07-21T14:37:18;1068.68;;;967.97;;
31974;SDS011;18500;43.618;1.474;2022-07-21T14:39:45;1026.53;;;935.58;;
31974;SDS011;18500;43.618;1.474;2022-07-21T14:42:12;1093.38;;;983.78;;
31974;SDS011;18500;43.618;1.474;2022-07-21T14:44:37;1023.03;;;926.85;;
31974;SDS011;18500;43.618;1.474;2022-07-21T14:47:04;851.58;;;777.95;;
31974;SDS011;18500;43.618;1.474;2022-07-21T14:49:31;678.35;;;618.60;;
31974;SDS011;18500;43.618;1.474;2022-07-21T14:51:57;424.38;;;389.95;;
31974;SDS011;18500;43.618;1.474;2022-07-21T14:54:23;436.92;;;405.33;;
31974;SDS011;18500;43.618;1.474;2022-07-21T14:56:48;408.45;;;382.95;;
31974;SDS011;18500;43.618;1.474;2022-07-21T14:59:14;217.90;;;203.52;;
31974;SDS011;18500;43.618;1.474;2022-07-21T15:01:40;199.63;;;186.77;;
31974;SDS011;18500;43.618;1.474;2022-07-21T15:04:05;273.08;;;255.50;;
31974;SDS011;18500;43.618;1.474;2022-07-21T15:06:32;278.10;;;260.50;;
31974;SDS011;18500;43.618;1.474;2022-07-21T15:08:58;344.60;;;321.75;;
31974;SDS011;18500;43.618;1.474;2022-07-21T15:11:24;370.98;;;345.92;;
31974;SDS011;18500;43.618;1.474;2022-07-21T15:13:50;459.55;;;426.17;;
31974;SDS011;18500;43.618;1.474;2022-07-21T15:16:16;503.75;;;466.25;;
31974;SDS011;18500;43.618;1.474;2022-07-21T15:18:42;251.75;;;234.68;;
31974;SDS011;18500;43.618;1.474;2022-07-21T15:21:07;384.38;;;358.80;;
31974;SDS011;18500;43.618;1.474;2022-07-21T15:23:33;489.58;;;456.25;;
31974;SDS011;18500;43.618;1.474;2022-07-21T15:25:59;484.85;;;451.83;;
31974;SDS011;18500;43.618;1.474;2022-07-21T15:28:25;378.45;;;352.58;;
31974;SDS011;18500;43.618;1.474;2022-07-21T15:30:51;454.73;;;423.92;;
31974;SDS011;18500;43.618;1.474;2022-07-21T15:33:16;656.50;;;610.15;;
31974;SDS011;18500;43.618;1.474;2022-07-21T15:35:42;581.63;;;540.70;;
31974;SDS011;18500;43.618;1.474;2022-07-21T15:38:08;576.30;;;535.55;;
31974;SDS011;18500;43.618;1.474;2022-07-21T15:40:34;612.20;;;568.45;;
31974;SDS011;18500;43.618;1.474;2022-07-21T15:43:00;605.13;;;562.75;;
31974;SDS011;18500;43.618;1.474;2022-07-21T15:45:25;592.10;;;550.42;;
31974;SDS011;18500;43.618;1.474;2022-07-21T15:47:51;419.77;;;391.60;;
31974;SDS011;18500;43.618;1.474;2022-07-21T15:50:17;598.55;;;555.97;;
31974;SDS011;18500;43.618;1.474;2022-07-21T15:52:43;529.92;;;492.50;;
31974;SDS011;18500;43.618;1.474;2022-07-21T15:55:09;504.08;;;468.52;;
31974;SDS011;18500;43.618;1.474;2022-07-21T15:57:36;520.58;;;484.25;;
31974;SDS011;18500;43.618;1.474;2022-07-21T16:00:06;562.83;;;522.90;;
31974;SDS011;18500;43.618;1.474;2022-07-21T16:02:34;527.10;;;490.98;;
31974;SDS011;18500;43.618;1.474;2022-07-21T16:05:00;511.83;;;477.08;;
31974;SDS011;18500;43.618;1.474;2022-07-21T16:07:25;461.10;;;429.85;;
31974;SDS011;18500;43.618;1.474;2022-07-21T16:09:51;533.50;;;496.38;;
31974;SDS011;18500;43.618;1.474;2022-07-21T16:12:17;510.83;;;475.30;;
31974;SDS011;18500;43.618;1.474;2022-07-21T16:14:42;612.20;;;568.15;;
31974;SDS011;18500;43.618;1.474;2022-07-21T16:17:08;630.47;;;585.10;;
31974;SDS011;18500;43.618;1.474;2022-07-21T16:19:35;588.38;;;545.70;;
31974;SDS011;18500;43.618;1.474;2022-07-21T16:22:00;531.25;;;493.73;;
31974;SDS011;18500;43.618;1.474;2022-07-21T16:24:26;459.33;;;426.83;;
31974;SDS011;18500;43.618;1.474;2022-07-21T16:26:52;621.28;;;576.10;;
31974;SDS011;18500;43.618;1.474;2022-07-21T16:29:18;624.45;;;579.03;;
31974;SDS011;18500;43.618;1.474;2022-07-21T16:31:44;671.08;;;621.97;;
31974;SDS011;18500;43.618;1.474;2022-07-21T16:34:09;712.03;;;659.35;;
31974;SDS011;18500;43.618;1.474;2022-07-21T16:36:36;691.90;;;640.80;;
31974;SDS011;18500;43.618;1.474;2022-07-21T16:39:02;720.15;;;667.58;;
31974;SDS011;18500;43.618;1.474;2022-07-21T16:41:28;595.42;;;552.10;;
31974;SDS011;18500;43.618;1.474;2022-07-21T16:43:54;643.85;;;596.53;;
31974;SDS011;18500;43.618;1.474;2022-07-21T16:46:20;695.88;;;644.92;;
31974;SDS011;18500;43.618;1.474;2022-07-21T16:48:45;734.88;;;681.08;;
31974;SDS011;18500;43.618;1.474;2022-07-21T16:51:15;678.75;;;628.92;;
31974;SDS011;18500;43.618;1.474;2022-07-21T16:53:41;651.17;;;603.28;;
31974;SDS011;18500;43.618;1.474;2022-07-21T16:56:08;626.80;;;580.95;;
31974;SDS011;18500;43.618;1.474;2022-07-21T16:58:33;530.53;;;491.48;;
31974;SDS011;18500;43.618;1.474;2022-07-21T17:00:59;684.20;;;634.67;;
31974;SDS011;18500;43.618;1.474;2022-07-21T17:03:25;690.95;;;640.30;;
31974;SDS011;18500;43.618;1.474;2022-07-21T17:05:50;643.78;;;596.70;;
31974;SDS011;18500;43.618;1.474;2022-07-21T17:08:16;693.97;;;643.00;;
31974;SDS011;18500;43.618;1.474;2022-07-21T17:10:42;706.17;;;654.65;;
31974;SDS011;18500;43.618;1.474;2022-07-21T17:13:07;751.40;;;695.58;;
31974;SDS011;18500;43.618;1.474;2022-07-21T17:15:33;640.35;;;593.45;;
31974;SDS011;18500;43.618;1.474;2022-07-21T17:17:59;630.63;;;584.67;;
31974;SDS011;18500;43.618;1.474;2022-07-21T17:20:24;471.98;;;438.52;;
31974;SDS011;18500;43.618;1.474;2022-07-21T17:22:50;558.38;;;517.78;;
31974;SDS011;18500;43.618;1.474;2022-07-21T17:25:16;533.95;;;496.13;;
31974;SDS011;18500;43.618;1.474;2022-07-21T17:27:42;684.97;;;634.80;;
31974;SDS011;18500;43.618;1.474;2022-07-21T17:30:08;805.08;;;743.40;;
31974;SDS011;18500;43.618;1.474;2022-07-21T17:32:34;783.22;;;724.17;;
31974;SDS011;18500;43.618;1.474;2022-07-21T17:35:00;643.35;;;596.10;;
31974;SDS011;18500;43.618;1.474;2022-07-21T17:37:25;573.83;;;532.97;;
31974;SDS011;18500;43.618;1.474;2022-07-21T17:39:51;721.47;;;668.60;;
31974;SDS011;18500;43.618;1.474;2022-07-21T17:42:17;847.53;;;779.65;;
31974;SDS011;18500;43.618;1.474;2022-07-21T17:44:42;826.50;;;761.35;;
31974;SDS011;18500;43.618;1.474;2022-07-21T17:47:08;844.47;;;776.65;;
31974;SDS011;18500;43.618;1.474;2022-07-21T17:49:34;846.03;;;778.38;;
31974;SDS011;18500;43.618;1.474;2022-07-21T17:51:59;789.25;;;727.53;;
31974;SDS011;18500;43.618;1.474;2022-07-21T17:54:25;736.50;;;679.88;;
31974;SDS011;18500;43.618;1.474;2022-07-21T17:56:51;900.47;;;824.70;;
31974;SDS011;18500;43.618;1.474;2022-07-21T17:59:36;854.65;;;785.17;;
31974;SDS011;18500;43.618;1.474;2022-07-21T18:02:02;798.70;;;735.47;;
31974;SDS011;18500;43.618;1.474;2022-07-21T18:04:28;752.17;;;694.03;;
31974;SDS011;18500;43.618;1.474;2022-07-21T18:06:54;803.00;;;739.72;;
31974;SDS011;18500;43.618;1.474;2022-07-21T18:09:19;801.15;;;738.05;;
31974;SDS011;18500;43.618;1.474;2022-07-21T18:11:45;851.88;;;783.08;;
31974;SDS011;18500;43.618;1.474;2022-07-21T18:14:11;794.25;;;730.72;;
31974;SDS011;18500;43.618;1.474;2022-07-21T18:16:36;747.95;;;689.80;;
31974;SDS011;18500;43.618;1.474;2022-07-21T18:19:02;866.75;;;795.75;;
31974;SDS011;18500;43.618;1.474;2022-07-21T18:21:28;831.80;;;766.03;;
31974;SDS011;18500;43.618;1.474;2022-07-21T18:23:53;691.33;;;638.88;;
31974;SDS011;18500;43.618;1.474;2022-07-21T18:26:19;783.97;;;721.95;;
31974;SDS011;18500;43.618;1.474;2022-07-21T18:28:45;863.17;;;793.42;;
31974;SDS011;18500;43.618;1.474;2022-07-21T18:31:11;750.45;;;692.28;;
31974;SDS011;18500;43.618;1.474;2022-07-21T18:33:38;759.20;;;700.15;;
31974;SDS011;18500;43.618;1.474;2022-07-21T18:36:04;714.88;;;660.58;;
31974;SDS011;18500;43.618;1.474;2022-07-21T18:38:29;758.78;;;700.08;;
31974;SDS011;18500;43.618;1.474;2022-07-21T18:40:55;653.85;;;605.03;;
31974;SDS011;18500;43.618;1.474;2022-07-21T18:43:21;680.35;;;629.30;;
31974;SDS011;18500;43.618;1.474;2022-07-21T18:45:46;764.17;;;704.63;;
31974;SDS011;18500;43.618;1.474;2022-07-21T18:48:12;690.95;;;638.00;;
31974;SDS011;18500;43.618;1.474;2022-07-21T18:50:38;675.60;;;625.25;;
31974;SDS011;18500;43.618;1.474;2022-07-21T18:53:03;683.95;;;633.03;;
31974;SDS011;18500;43.618;1.474;2022-07-21T18:55:29;782.92;;;721.33;;
31974;SDS011;18500;43.618;1.474;2022-07-21T18:57:55;764.25;;;704.75;;
31974;SDS011;18500;43.618;1.474;2022-07-21T19:00:20;688.53;;;636.65;;
31974;SDS011;18500;43.618;1.474;2022-07-21T19:02:47;733.13;;;676.83;;
31974;SDS011;18500;43.618;1.474;2022-07-21T19:05:13;667.58;;;616.90;;
31974;SDS011;18500;43.618;1.474;2022-07-21T19:07:41;707.25;;;653.42;;
31974;SDS011;18500;43.618;1.474;2022-07-21T19:10:07;662.45;;;612.75;;
31974;SDS011;18500;43.618;1.474;2022-07-21T19:12:33;635.90;;;588.63;;
31974;SDS011;18500;43.618;1.474;2022-07-21T19:14:59;631.25;;;584.28;;
31974;SDS011;18500;43.618;1.474;2022-07-21T19:17:25;622.45;;;576.40;;
31974;SDS011;18500;43.618;1.474;2022-07-21T19:19:50;606.38;;;561.42;;
31974;SDS011;18500;43.618;1.474;2022-07-21T19:22:16;615.15;;;569.45;;
31974;SDS011;18500;43.618;1.474;2022-07-21T19:24:42;571.92;;;530.53;;
31974;SDS011;18500;43.618;1.474;2022-07-21T19:27:07;561.72;;;520.60;;
31974;SDS011;18500;43.618;1.474;2022-07-21T19:29:33;563.33;;;522.42;;
31974;SDS011;18500;43.618;1.474;2022-07-21T19:31:59;541.65;;;502.42;;
31974;SDS011;18500;43.618;1.474;2022-07-21T19:34:25;544.13;;;504.38;;
31974;SDS011;18500;43.618;1.474;2022-07-21T19:36:52;450.80;;;420.05;;
31974;SDS011;18500;43.618;1.474;2022-07-21T19:39:18;453.08;;;422.73;;
31974;SDS011;18500;43.618;1.474;2022-07-21T19:41:44;464.77;;;433.08;;
31974;SDS011;18500;43.618;1.474;2022-07-21T19:44:10;450.15;;;419.33;;
31974;SDS011;18500;43.618;1.474;2022-07-21T19:46:36;381.00;;;355.70;;
31974;SDS011;18500;43.618;1.474;2022-07-21T19:49:02;395.95;;;370.02;;
31974;SDS011;18500;43.618;1.474;2022-07-21T19:51:27;407.80;;;380.80;;
31974;SDS011;18500;43.618;1.474;2022-07-21T19:53:53;403.80;;;377.77;;
31974;SDS011;18500;43.618;1.474;2022-07-21T19:56:19;411.52;;;385.10;;
31974;SDS011;18500;43.618;1.474;2022-07-21T19:58:44;454.73;;;425.88;;
31974;SDS011;18500;43.618;1.474;2022-07-21T20:01:10;442.27;;;414.42;;
31974;SDS011;18500;43.618;1.474;2022-07-21T20:03:36;470.15;;;440.92;;
31974;SDS011;18500;43.618;1.474;2022-07-21T20:06:02;475.33;;;445.02;;
31974;SDS011;18500;43.618;1.474;2022-07-21T20:08:28;502.10;;;468.83;;
31974;SDS011;18500;43.618;1.474;2022-07-21T20:10:53;445.00;;;416.52;;
31974;SDS011;18500;43.618;1.474;2022-07-21T20:13:19;463.33;;;433.63;;
31974;SDS011;18500;43.618;1.474;2022-07-21T20:15:45;482.38;;;450.73;;
31974;SDS011;18500;43.618;1.474;2022-07-21T20:18:11;481.83;;;450.35;;
31974;SDS011;18500;43.618;1.474;2022-07-21T20:20:37;529.33;;;493.15;;
31974;SDS011;18500;43.618;1.474;2022-07-21T20:23:03;535.35;;;498.80;;
31974;SDS011;18500;43.618;1.474;2022-07-21T20:25:29;576.92;;;536.50;;
31974;SDS011;18500;43.618;1.474;2022-07-21T20:27:55;512.17;;;477.90;;
31974;SDS011;18500;43.618;1.474;2022-07-21T20:30:21;616.58;;;574.45;;
31974;SDS011;18500;43.618;1.474;2022-07-21T20:32:47;580.25;;;540.22;;
31974;SDS011;18500;43.618;1.474;2022-07-21T20:35:15;572.17;;;532.95;;
31974;SDS011;18500;43.618;1.474;2022-07-21T20:37:43;610.35;;;568.08;;
31974;SDS011;18500;43.618;1.474;2022-07-21T20:40:10;714.58;;;662.08;;
31974;SDS011;18500;43.618;1.474;2022-07-21T20:42:37;594.70;;;553.90;;
31974;SDS011;18500;43.618;1.474;2022-07-21T20:45:03;613.22;;;570.33;;
31974;SDS011;18500;43.618;1.474;2022-07-21T20:47:30;600.72;;;559.30;;
31974;SDS011;18500;43.618;1.474;2022-07-21T20:49:55;613.65;;;571.15;;
31974;SDS011;18500;43.618;1.474;2022-07-21T20:52:21;573.50;;;533.97;;
31974;SDS011;18500;43.618;1.474;2022-07-21T20:54:47;651.20;;;605.58;;
31974;SDS011;18500;43.618;1.474;2022-07-21T20:57:13;623.90;;;580.47;;
31974;SDS011;18500;43.618;1.474;2022-07-21T20:59:41;695.15;;;644.58;;
31974;SDS011;18500;43.618;1.474;2022-07-21T21:02:07;655.45;;;608.83;;
31974;SDS011;18500;43.618;1.474;2022-07-21T21:04:32;658.83;;;611.42;;
31974;SDS011;18500;43.618;1.474;2022-07-21T21:06:58;698.72;;;644.72;;
31974;SDS011;18500;43.618;1.474;2022-07-21T21:09:24;691.05;;;638.08;;
31974;SDS011;18500;43.618;1.474;2022-07-21T21:11:50;700.22;;;646.15;;
31974;SDS011;18500;43.618;1.474;2022-07-21T21:14:16;694.65;;;641.03;;
31974;SDS011;18500;43.618;1.474;2022-07-21T21:16:42;713.22;;;657.72;;
31974;SDS011;18500;43.618;1.474;2022-07-21T21:19:07;719.45;;;664.30;;
31974;SDS011;18500;43.618;1.474;2022-07-21T21:21:33;719.50;;;664.78;;
31974;SDS011;18500;43.618;1.474;2022-07-21T21:23:59;721.22;;;665.60;;
31974;SDS011;18500;43.618;1.474;2022-07-21T21:26:25;719.00;;;663.28;;
31974;SDS011;18500;43.618;1.474;2022-07-21T21:28:51;722.60;;;667.05;;
31974;SDS011;18500;43.618;1.474;2022-07-21T21:31:16;730.05;;;674.00;;
31974;SDS011;18500;43.618;1.474;2022-07-21T21:33:42;734.15;;;677.53;;
31974;SDS011;18500;43.618;1.474;2022-07-21T21:36:08;728.00;;;672.33;;
31974;SDS011;18500;43.618;1.474;2022-07-21T21:38:34;741.85;;;683.83;;
31974;SDS011;18500;43.618;1.474;2022-07-21T21:41:00;740.75;;;683.60;;
31974;SDS011;18500;43.618;1.474;2022-07-21T21:43:25;726.67;;;670.72;;
31974;SDS011;18500;43.618;1.474;2022-07-21T21:45:51;716.85;;;662.25;;
31974;SDS011;18500;43.618;1.474;2022-07-21T21:48:17;717.78;;;663.00;;
31974;SDS011;18500;43.618;1.474;2022-07-21T21:50:43;709.22;;;654.42;;
31974;SDS011;18500;43.618;1.474;2022-07-21T21:53:08;720.75;;;665.65;;
31974;SDS011;18500;43.618;1.474;2022-07-21T21:55:34;697.92;;;644.40;;
31974;SDS011;18500;43.618;1.474;2022-07-21T21:58:00;698.08;;;645.80;;
31974;SDS011;18500;43.618;1.474;2022-07-21T22:00:25;689.55;;;637.28;;
31974;SDS011;18500;43.618;1.474;2022-07-21T22:02:51;703.65;;;650.67;;
31974;SDS011;18500;43.618;1.474;2022-07-21T22:05:17;689.97;;;638.10;;
31974;SDS011;18500;43.618;1.474;2022-07-21T22:07:42;677.97;;;627.08;;
31974;SDS011;18500;43.618;1.474;2022-07-21T22:10:10;706.67;;;653.13;;
31974;SDS011;18500;43.618;1.474;2022-07-21T22:12:37;691.13;;;638.45;;
31974;SDS011;18500;43.618;1.474;2022-07-21T22:15:03;710.03;;;656.00;;
31974;SDS011;18500;43.618;1.474;2022-07-21T22:17:30;703.97;;;650.72;;
31974;SDS011;18500;43.618;1.474;2022-07-21T22:19:56;721.38;;;667.17;;
31974;SDS011;18500;43.618;1.474;2022-07-21T22:22:21;704.58;;;650.53;;
31974;SDS011;18500;43.618;1.474;2022-07-21T22:24:47;695.53;;;643.22;;
31974;SDS011;18500;43.618;1.474;2022-07-21T22:27:12;698.10;;;644.80;;
31974;SDS011;18500;43.618;1.474;2022-07-21T22:29:38;684.33;;;632.13;;
31974;SDS011;18500;43.618;1.474;2022-07-21T22:32:04;700.15;;;646.00;;
31974;SDS011;18500;43.618;1.474;2022-07-21T22:34:30;709.38;;;654.67;;
31974;SDS011;18500;43.618;1.474;2022-07-21T22:36:56;705.17;;;650.35;;
31974;SDS011;18500;43.618;1.474;2022-07-21T22:39:21;700.65;;;646.00;;
31974;SDS011;18500;43.618;1.474;2022-07-21T22:41:47;704.40;;;650.05;;
31974;SDS011;18500;43.618;1.474;2022-07-21T22:44:14;712.95;;;658.20;;
31974;SDS011;18500;43.618;1.474;2022-07-21T22:46:40;687.10;;;634.17;;
31974;SDS011;18500;43.618;1.474;2022-07-21T22:49:06;701.25;;;647.75;;
31974;SDS011;18500;43.618;1.474;2022-07-21T22:51:31;705.67;;;651.70;;
31974;SDS011;18500;43.618;1.474;2022-07-21T22:53:57;694.15;;;641.50;;
31974;SDS011;18500;43.618;1.474;2022-07-21T22:56:23;712.30;;;658.10;;
31974;SDS011;18500;43.618;1.474;2022-07-21T22:58:49;713.65;;;660.05;;
31974;SDS011;18500;43.618;1.474;2022-07-21T23:01:15;700.88;;;647.58;;
31974;SDS011;18500;43.618;1.474;2022-07-21T23:03:40;693.03;;;640.67;;
31974;SDS011;18500;43.618;1.474;2022-07-21T23:06:06;697.72;;;644.97;;
31974;SDS011;18500;43.618;1.474;2022-07-21T23:08:32;698.50;;;645.72;;
31974;SDS011;18500;43.618;1.474;2022-07-21T23:10:57;680.58;;;628.80;;
31974;SDS011;18500;43.618;1.474;2022-07-21T23:13:23;686.17;;;634.78;;
31974;SDS011;18500;43.618;1.474;2022-07-21T23:15:49;691.33;;;638.25;;
31974;SDS011;18500;43.618;1.474;2022-07-21T23:18:14;691.15;;;639.10;;
31974;SDS011;18500;43.618;1.474;2022-07-21T23:20:40;697.80;;;645.38;;
